sensor_id;sensor_type;location;lat;lon;timestamp;temperature;humidity
16198;DHT22;8206;51.440;6.914;2023-02-20T00:01:25;4.60;99.90
16198;DHT22;8206;51.440;6.914;2023-02-20T00:03:52;4.60;99.90
16198;DHT22;8206;51.440;6.914;2023-02-20T00:06:19;4.70;99.90
16198;DHT22;8206;51.440;6.914;2023-02-20T00:08:46;4.70;99.90
16198;DHT22;8206;51.440;6.914;2023-02-20T00:11:13;4.80;1.00
16198;DHT22;8206;51.440;6.914;2023-02-20T00:13:44;4.80;1.00
16198;DHT22;8206;51.440;6.914;2023-02-20T00:16:11;4.90;1.00
16198;DHT22;8206;51.440;6.914;2023-02-20T00:18:39;4.90;1.00
16198;DHT22;8206;51.440;6.914;2023-02-20T00:21:06;4.90;99.90
16198;DHT22;8206;51.440;6.914;2023-02-20T00:23:33;4.90;1.00
16198;DHT22;8206;51.440;6.914;2023-02-20T00:26:01;4.90;1.00
16198;DHT22;8206;51.440;6.914;2023-02-20T00:28:28;5.00;1.00
16198;DHT22;8206;51.440;6.914;2023-02-20T00:30:55;5.00;99.90
16198;DHT22;8206;51.440;6.914;2023-02-20T00:33:22;5.00;1.00
16198;DHT22;8206;51.440;6.914;2023-02-20T00:35:50;5.00;99.90
16198;DHT22;8206;51.440;6.914;2023-02-20T00:38:17;5.00;99.90
16198;DHT22;8206;51.440;6.914;2023-02-20T00:40:44;5.10;99.90
16198;DHT22;8206;51.440;6.914;2023-02-20T00:43:11;5.10;99.90
16198;DHT22;8206;51.440;6.914;2023-02-20T00:45:37;5.10;1.00
16198;DHT22;8206;51.440;6.914;2023-02-20T00:48:05;5.10;1.00
16198;DHT22;8206;51.440;6.914;2023-02-20T00:50:31;5.10;99.90
16198;DHT22;8206;51.440;6.914;2023-02-20T00:52:59;5.10;19.10
16198;DHT22;8206;51.440;6.914;2023-02-20T00:55:26;5.20;99.90
16198;DHT22;8206;51.440;6.914;2023-02-20T00:57:53;5.20;99.90
16198;DHT22;8206;51.440;6.914;2023-02-20T01:00:22;5.20;1.00
16198;DHT22;8206;51.440;6.914;2023-02-20T01:02:49;5.20;99.90
16198;DHT22;8206;51.440;6.914;2023-02-20T01:05:16;5.20;99.90
16198;DHT22;8206;51.440;6.914;2023-02-20T01:07:42;5.20;99.90
16198;DHT22;8206;51.440;6.914;2023-02-20T01:10:11;5.10;99.90
16198;DHT22;8206;51.440;6.914;2023-02-20T01:12:39;5.20;99.90
16198;DHT22;8206;51.440;6.914;2023-02-20T01:15:07;5.20;99.90
16198;DHT22;8206;51.440;6.914;2023-02-20T01:17:34;5.20;99.90
16198;DHT22;8206;51.440;6.914;2023-02-20T01:20:01;5.20;99.90
16198;DHT22;8206;51.440;6.914;2023-02-20T01:22:27;5.20;99.90
16198;DHT22;8206;51.440;6.914;2023-02-20T01:24:54;5.20;99.90
16198;DHT22;8206;51.440;6.914;2023-02-20T01:27:22;5.20;99.90
16198;DHT22;8206;51.440;6.914;2023-02-20T01:29:49;5.20;99.90
16198;DHT22;8206;51.440;6.914;2023-02-20T01:32:16;5.20;99.90
16198;DHT22;8206;51.440;6.914;2023-02-20T01:34:42;5.20;99.90
16198;DHT22;8206;51.440;6.914;2023-02-20T01:37:13;5.20;99.90
16198;DHT22;8206;51.440;6.914;2023-02-20T01:39:39;5.20;99.90
16198;DHT22;8206;51.440;6.914;2023-02-20T01:42:11;5.30;99.90
16198;DHT22;8206;51.440;6.914;2023-02-20T01:44:43;5.30;99.90
16198;DHT22;8206;51.440;6.914;2023-02-20T01:47:12;5.30;99.90
16198;DHT22;8206;51.440;6.914;2023-02-20T01:49:43;5.30;99.90
16198;DHT22;8206;51.440;6.914;2023-02-20T01:52:14;5.30;99.90
16198;DHT22;8206;51.440;6.914;2023-02-20T01:54:42;5.30;99.90
16198;DHT22;8206;51.440;6.914;2023-02-20T01:57:15;5.30;99.90
16198;DHT22;8206;51.440;6.914;2023-02-20T01:59:44;5.30;99.90
16198;DHT22;8206;51.440;6.914;2023-02-20T02:02:11;5.30;99.90
16198;DHT22;8206;51.440;6.914;2023-02-20T02:04:39;5.30;45.60
16198;DHT22;8206;51.440;6.914;2023-02-20T02:07:06;5.30;39.20
16198;DHT22;8206;51.440;6.914;2023-02-20T02:09:37;5.30;45.40
16198;DHT22;8206;51.440;6.914;2023-02-20T02:12:05;5.40;13.10
16198;DHT22;8206;51.440;6.914;2023-02-20T02:14:33;5.30;1.00
16198;DHT22;8206;51.440;6.914;2023-02-20T02:17:28;5.30;1.00
16198;DHT22;8206;51.440;6.914;2023-02-20T02:26:53;5.00;66.30
16198;DHT22;8206;51.440;6.914;2023-02-20T02:29:54;4.90;99.90
16198;DHT22;8206;51.440;6.914;2023-02-20T02:38:25;4.90;99.90
16198;DHT22;8206;51.440;6.914;2023-02-20T02:40:59;4.80;99.90
16198;DHT22;8206;51.440;6.914;2023-02-20T02:43:34;4.80;99.90
16198;DHT22;8206;51.440;6.914;2023-02-20T02:46:06;4.80;99.90
16198;DHT22;8206;51.440;6.914;2023-02-20T02:48:39;4.80;99.90
16198;DHT22;8206;51.440;6.914;2023-02-20T02:51:11;4.70;99.90
16198;DHT22;8206;51.440;6.914;2023-02-20T02:53:40;4.70;99.90
16198;DHT22;8206;51.440;6.914;2023-02-20T02:56:08;4.70;99.90
16198;DHT22;8206;51.440;6.914;2023-02-20T02:58:47;4.70;99.90
16198;DHT22;8206;51.440;6.914;2023-02-20T03:01:15;4.60;99.90
16198;DHT22;8206;51.440;6.914;2023-02-20T03:03:45;4.60;99.90
16198;DHT22;8206;51.440;6.914;2023-02-20T03:06:16;4.60;99.90
16198;DHT22;8206;51.440;6.914;2023-02-20T03:08:52;4.60;99.90
16198;DHT22;8206;51.440;6.914;2023-02-20T03:11:23;4.60;99.90
16198;DHT22;8206;51.440;6.914;2023-02-20T03:13:53;4.60;99.90
16198;DHT22;8206;51.440;6.914;2023-02-20T03:16:43;4.70;99.90
16198;DHT22;8206;51.440;6.914;2023-02-20T03:19:13;4.70;99.90
16198;DHT22;8206;51.440;6.914;2023-02-20T03:21:45;4.70;99.90
16198;DHT22;8206;51.440;6.914;2023-02-20T03:24:19;4.80;99.90
16198;DHT22;8206;51.440;6.914;2023-02-20T03:26:46;4.80;99.90
16198;DHT22;8206;51.440;6.914;2023-02-20T03:29:18;4.80;99.90
16198;DHT22;8206;51.440;6.914;2023-02-20T03:31:55;4.80;99.90
16198;DHT22;8206;51.440;6.914;2023-02-20T03:34:42;4.80;99.90
16198;DHT22;8206;51.440;6.914;2023-02-20T03:37:30;4.80;99.90
16198;DHT22;8206;51.440;6.914;2023-02-20T03:40:19;4.80;99.90
16198;DHT22;8206;51.440;6.914;2023-02-20T03:43:09;4.70;99.90
16198;DHT22;8206;51.440;6.914;2023-02-20T03:45:51;4.60;99.90
16198;DHT22;8206;51.440;6.914;2023-02-20T03:48:21;4.60;99.90
16198;DHT22;8206;51.440;6.914;2023-02-20T03:50:50;4.60;99.90
16198;DHT22;8206;51.440;6.914;2023-02-20T03:53:17;4.60;99.90
16198;DHT22;8206;51.440;6.914;2023-02-20T03:55:46;4.50;99.90
16198;DHT22;8206;51.440;6.914;2023-02-20T03:58:16;4.50;99.90
16198;DHT22;8206;51.440;6.914;2023-02-20T04:00:48;4.50;99.90
16198;DHT22;8206;51.440;6.914;2023-02-20T04:03:17;4.50;99.90
16198;DHT22;8206;51.440;6.914;2023-02-20T04:05:47;4.40;99.90
16198;DHT22;8206;51.440;6.914;2023-02-20T04:08:17;4.50;99.90
16198;DHT22;8206;51.440;6.914;2023-02-20T04:10:49;4.40;99.90
16198;DHT22;8206;51.440;6.914;2023-02-20T04:13:19;4.40;99.90
16198;DHT22;8206;51.440;6.914;2023-02-20T04:15:46;4.40;99.90
16198;DHT22;8206;51.440;6.914;2023-02-20T04:18:16;4.40;99.90
16198;DHT22;8206;51.440;6.914;2023-02-20T04:20:44;4.40;99.90
16198;DHT22;8206;51.440;6.914;2023-02-20T04:23:14;4.40;99.90
16198;DHT22;8206;51.440;6.914;2023-02-20T04:25:43;4.40;99.90
16198;DHT22;8206;51.440;6.914;2023-02-20T04:28:13;4.40;99.90
16198;DHT22;8206;51.440;6.914;2023-02-20T04:30:41;4.40;99.90
16198;DHT22;8206;51.440;6.914;2023-02-20T04:33:09;4.40;99.90
16198;DHT22;8206;51.440;6.914;2023-02-20T04:35:36;4.40;99.90
16198;DHT22;8206;51.440;6.914;2023-02-20T04:38:03;4.30;99.90
16198;DHT22;8206;51.440;6.914;2023-02-20T04:40:30;4.40;99.90
16198;DHT22;8206;51.440;6.914;2023-02-20T04:42:57;4.30;99.90
16198;DHT22;8206;51.440;6.914;2023-02-20T04:45:25;4.40;99.90
16198;DHT22;8206;51.440;6.914;2023-02-20T04:47:52;4.40;99.90
16198;DHT22;8206;51.440;6.914;2023-02-20T04:50:21;4.40;99.90
16198;DHT22;8206;51.440;6.914;2023-02-20T04:52:48;4.30;99.90
16198;DHT22;8206;51.440;6.914;2023-02-20T04:55:15;4.40;99.90
16198;DHT22;8206;51.440;6.914;2023-02-20T04:57:42;4.40;99.90
16198;DHT22;8206;51.440;6.914;2023-02-20T05:00:09;4.30;99.90
16198;DHT22;8206;51.440;6.914;2023-02-20T05:02:38;4.30;99.90
16198;DHT22;8206;51.440;6.914;2023-02-20T05:05:06;4.30;99.90
16198;DHT22;8206;51.440;6.914;2023-02-20T05:07:40;4.30;99.90
16198;DHT22;8206;51.440;6.914;2023-02-20T05:10:07;4.30;99.90
16198;DHT22;8206;51.440;6.914;2023-02-20T05:12:34;4.30;99.90
16198;DHT22;8206;51.440;6.914;2023-02-20T05:15:01;4.30;99.90
16198;DHT22;8206;51.440;6.914;2023-02-20T05:17:27;4.40;99.90
16198;DHT22;8206;51.440;6.914;2023-02-20T05:19:55;4.40;99.90
16198;DHT22;8206;51.440;6.914;2023-02-20T05:22:22;4.40;99.90
16198;DHT22;8206;51.440;6.914;2023-02-20T05:24:49;4.50;99.90
16198;DHT22;8206;51.440;6.914;2023-02-20T05:27:18;4.50;99.90
16198;DHT22;8206;51.440;6.914;2023-02-20T05:29:45;4.60;99.90
16198;DHT22;8206;51.440;6.914;2023-02-20T05:32:12;4.60;99.90
16198;DHT22;8206;51.440;6.914;2023-02-20T05:34:39;4.70;99.90
16198;DHT22;8206;51.440;6.914;2023-02-20T05:37:08;4.80;99.90
16198;DHT22;8206;51.440;6.914;2023-02-20T05:39:34;4.90;99.90
16198;DHT22;8206;51.440;6.914;2023-02-20T05:42:01;5.00;99.90
16198;DHT22;8206;51.440;6.914;2023-02-20T05:44:28;5.00;99.90
16198;DHT22;8206;51.440;6.914;2023-02-20T05:46:55;5.10;99.90
16198;DHT22;8206;51.440;6.914;2023-02-20T05:49:22;5.10;99.90
16198;DHT22;8206;51.440;6.914;2023-02-20T05:51:49;5.10;99.90
16198;DHT22;8206;51.440;6.914;2023-02-20T05:54:19;5.20;99.90
16198;DHT22;8206;51.440;6.914;2023-02-20T05:56:46;5.30;99.90
16198;DHT22;8206;51.440;6.914;2023-02-20T05:59:16;5.30;99.90
16198;DHT22;8206;51.440;6.914;2023-02-20T06:01:44;5.40;99.90
16198;DHT22;8206;51.440;6.914;2023-02-20T06:04:11;5.40;99.90
16198;DHT22;8206;51.440;6.914;2023-02-20T06:06:39;5.50;99.90
16198;DHT22;8206;51.440;6.914;2023-02-20T06:09:08;5.50;99.90
16198;DHT22;8206;51.440;6.914;2023-02-20T06:11:38;5.50;99.90
16198;DHT22;8206;51.440;6.914;2023-02-20T06:14:06;5.50;99.90
16198;DHT22;8206;51.440;6.914;2023-02-20T06:16:34;5.50;99.90
16198;DHT22;8206;51.440;6.914;2023-02-20T06:19:01;5.50;99.90
16198;DHT22;8206;51.440;6.914;2023-02-20T06:21:29;5.50;99.90
16198;DHT22;8206;51.440;6.914;2023-02-20T06:23:57;5.60;99.90
16198;DHT22;8206;51.440;6.914;2023-02-20T06:26:24;5.60;99.90
16198;DHT22;8206;51.440;6.914;2023-02-20T06:28:52;5.60;99.90
16198;DHT22;8206;51.440;6.914;2023-02-20T06:31:22;5.60;99.90
16198;DHT22;8206;51.440;6.914;2023-02-20T06:33:49;5.70;99.90
16198;DHT22;8206;51.440;6.914;2023-02-20T06:36:19;5.60;99.90
16198;DHT22;8206;51.440;6.914;2023-02-20T06:38:46;5.70;99.90
16198;DHT22;8206;51.440;6.914;2023-02-20T06:41:13;5.70;99.90
16198;DHT22;8206;51.440;6.914;2023-02-20T06:43:40;5.70;99.90
16198;DHT22;8206;51.440;6.914;2023-02-20T06:46:08;5.70;99.90
16198;DHT22;8206;51.440;6.914;2023-02-20T06:48:41;5.70;99.90
16198;DHT22;8206;51.440;6.914;2023-02-20T06:51:08;5.70;99.90
16198;DHT22;8206;51.440;6.914;2023-02-20T06:53:35;5.70;99.90
16198;DHT22;8206;51.440;6.914;2023-02-20T06:56:05;5.70;99.90
16198;DHT22;8206;51.440;6.914;2023-02-20T06:58:32;5.80;99.90
16198;DHT22;8206;51.440;6.914;2023-02-20T07:00:59;5.80;99.90
16198;DHT22;8206;51.440;6.914;2023-02-20T07:03:27;5.80;99.90
16198;DHT22;8206;51.440;6.914;2023-02-20T07:05:53;5.80;99.90
16198;DHT22;8206;51.440;6.914;2023-02-20T07:08:20;5.80;99.90
16198;DHT22;8206;51.440;6.914;2023-02-20T07:10:47;5.70;99.90
16198;DHT22;8206;51.440;6.914;2023-02-20T07:13:14;5.80;99.90
16198;DHT22;8206;51.440;6.914;2023-02-20T07:15:40;5.80;99.90
16198;DHT22;8206;51.440;6.914;2023-02-20T07:18:07;5.80;99.90
16198;DHT22;8206;51.440;6.914;2023-02-20T07:20:35;5.80;99.90
16198;DHT22;8206;51.440;6.914;2023-02-20T07:23:02;5.80;99.90
16198;DHT22;8206;51.440;6.914;2023-02-20T07:25:29;5.90;99.90
16198;DHT22;8206;51.440;6.914;2023-02-20T07:27:56;5.90;99.90
16198;DHT22;8206;51.440;6.914;2023-02-20T07:30:23;5.90;99.90
16198;DHT22;8206;51.440;6.914;2023-02-20T07:32:50;5.90;99.90
16198;DHT22;8206;51.440;6.914;2023-02-20T07:35:17;5.90;99.90
16198;DHT22;8206;51.440;6.914;2023-02-20T07:37:45;5.90;99.90
16198;DHT22;8206;51.440;6.914;2023-02-20T07:40:12;6.00;99.90
16198;DHT22;8206;51.440;6.914;2023-02-20T07:42:38;6.00;99.90
16198;DHT22;8206;51.440;6.914;2023-02-20T07:45:06;6.10;99.90
16198;DHT22;8206;51.440;6.914;2023-02-20T07:47:33;6.10;99.90
16198;DHT22;8206;51.440;6.914;2023-02-20T07:49:59;6.20;99.90
16198;DHT22;8206;51.440;6.914;2023-02-20T07:52:26;6.20;99.90
16198;DHT22;8206;51.440;6.914;2023-02-20T07:54:54;6.20;99.90
16198;DHT22;8206;51.440;6.914;2023-02-20T07:57:21;6.30;99.90
16198;DHT22;8206;51.440;6.914;2023-02-20T07:59:48;6.40;99.90
16198;DHT22;8206;51.440;6.914;2023-02-20T08:02:15;6.40;99.90
16198;DHT22;8206;51.440;6.914;2023-02-20T08:04:41;6.40;99.90
16198;DHT22;8206;51.440;6.914;2023-02-20T08:07:08;6.40;99.90
16198;DHT22;8206;51.440;6.914;2023-02-20T08:09:35;6.50;99.90
16198;DHT22;8206;51.440;6.914;2023-02-20T08:12:03;6.60;99.90
16198;DHT22;8206;51.440;6.914;2023-02-20T08:14:30;6.70;99.90
16198;DHT22;8206;51.440;6.914;2023-02-20T08:16:57;6.70;99.90
16198;DHT22;8206;51.440;6.914;2023-02-20T08:19:23;6.70;99.90
16198;DHT22;8206;51.440;6.914;2023-02-20T08:21:50;6.70;99.90
16198;DHT22;8206;51.440;6.914;2023-02-20T08:24:17;6.80;99.90
16198;DHT22;8206;51.440;6.914;2023-02-20T08:26:44;6.80;99.90
16198;DHT22;8206;51.440;6.914;2023-02-20T08:29:13;6.80;99.90
16198;DHT22;8206;51.440;6.914;2023-02-20T08:31:40;6.80;99.90
16198;DHT22;8206;51.440;6.914;2023-02-20T08:34:07;6.90;99.90
16198;DHT22;8206;51.440;6.914;2023-02-20T08:36:33;6.90;99.90
16198;DHT22;8206;51.440;6.914;2023-02-20T08:39:00;6.90;99.90
16198;DHT22;8206;51.440;6.914;2023-02-20T08:41:28;6.90;99.90
16198;DHT22;8206;51.440;6.914;2023-02-20T08:43:54;6.90;99.90
16198;DHT22;8206;51.440;6.914;2023-02-20T08:46:23;7.00;99.90
16198;DHT22;8206;51.440;6.914;2023-02-20T08:48:49;7.00;99.90
16198;DHT22;8206;51.440;6.914;2023-02-20T08:51:17;7.00;99.90
16198;DHT22;8206;51.440;6.914;2023-02-20T08:53:44;7.00;99.90
16198;DHT22;8206;51.440;6.914;2023-02-20T08:56:11;7.00;99.90
16198;DHT22;8206;51.440;6.914;2023-02-20T08:58:38;7.00;99.90
16198;DHT22;8206;51.440;6.914;2023-02-20T09:01:05;7.00;99.90
16198;DHT22;8206;51.440;6.914;2023-02-20T09:03:33;7.00;99.90
16198;DHT22;8206;51.440;6.914;2023-02-20T09:06:03;7.10;99.90
16198;DHT22;8206;51.440;6.914;2023-02-20T09:08:30;7.10;99.90
16198;DHT22;8206;51.440;6.914;2023-02-20T09:10:57;7.10;99.90
16198;DHT22;8206;51.440;6.914;2023-02-20T09:13:23;7.10;99.90
16198;DHT22;8206;51.440;6.914;2023-02-20T09:15:50;7.00;99.90
16198;DHT22;8206;51.440;6.914;2023-02-20T09:18:17;7.10;99.90
16198;DHT22;8206;51.440;6.914;2023-02-20T09:20:45;7.00;99.90
16198;DHT22;8206;51.440;6.914;2023-02-20T09:23:12;7.10;99.90
16198;DHT22;8206;51.440;6.914;2023-02-20T09:25:39;7.20;99.90
16198;DHT22;8206;51.440;6.914;2023-02-20T09:28:06;7.20;99.90
16198;DHT22;8206;51.440;6.914;2023-02-20T09:30:33;7.30;99.90
16198;DHT22;8206;51.440;6.914;2023-02-20T09:33:00;7.40;99.90
16198;DHT22;8206;51.440;6.914;2023-02-20T09:35:28;7.50;99.90
16198;DHT22;8206;51.440;6.914;2023-02-20T09:37:56;7.50;99.90
16198;DHT22;8206;51.440;6.914;2023-02-20T09:40:25;7.60;99.90
16198;DHT22;8206;51.440;6.914;2023-02-20T09:43:08;7.60;99.90
16198;DHT22;8206;51.440;6.914;2023-02-20T09:45:41;7.70;99.90
16198;DHT22;8206;51.440;6.914;2023-02-20T09:48:27;7.70;99.90
16198;DHT22;8206;51.440;6.914;2023-02-20T09:50:58;7.70;99.90
16198;DHT22;8206;51.440;6.914;2023-02-20T09:53:30;7.80;99.90
16198;DHT22;8206;51.440;6.914;2023-02-20T09:55:59;7.70;99.90
16198;DHT22;8206;51.440;6.914;2023-02-20T09:58:31;7.60;99.90
16198;DHT22;8206;51.440;6.914;2023-02-20T10:01:00;7.70;99.90
16198;DHT22;8206;51.440;6.914;2023-02-20T10:03:32;7.60;99.90
16198;DHT22;8206;51.440;6.914;2023-02-20T10:06:02;7.50;99.90
16198;DHT22;8206;51.440;6.914;2023-02-20T10:08:33;7.60;99.90
16198;DHT22;8206;51.440;6.914;2023-02-20T10:11:02;7.60;99.90
16198;DHT22;8206;51.440;6.914;2023-02-20T10:13:42;7.70;99.90
16198;DHT22;8206;51.440;6.914;2023-02-20T10:16:19;7.80;99.90
16198;DHT22;8206;51.440;6.914;2023-02-20T10:18:56;7.90;99.90
16198;DHT22;8206;51.440;6.914;2023-02-20T10:21:38;8.00;99.90
16198;DHT22;8206;51.440;6.914;2023-02-20T10:24:21;8.10;99.90
16198;DHT22;8206;51.440;6.914;2023-02-20T10:26:52;8.20;99.90
16198;DHT22;8206;51.440;6.914;2023-02-20T10:29:22;8.20;99.90
16198;DHT22;8206;51.440;6.914;2023-02-20T10:31:54;8.20;99.90
16198;DHT22;8206;51.440;6.914;2023-02-20T10:34:28;8.30;99.90
16198;DHT22;8206;51.440;6.914;2023-02-20T10:37:01;8.30;99.90
16198;DHT22;8206;51.440;6.914;2023-02-20T10:39:31;8.30;99.90
16198;DHT22;8206;51.440;6.914;2023-02-20T10:42:04;8.30;99.90
16198;DHT22;8206;51.440;6.914;2023-02-20T10:44:37;8.30;99.90
16198;DHT22;8206;51.440;6.914;2023-02-20T10:47:13;8.30;99.90
16198;DHT22;8206;51.440;6.914;2023-02-20T10:49:46;8.40;99.90
16198;DHT22;8206;51.440;6.914;2023-02-20T10:52:17;8.40;99.90
16198;DHT22;8206;51.440;6.914;2023-02-20T10:54:52;8.50;99.90
16198;DHT22;8206;51.440;6.914;2023-02-20T10:57:24;8.50;99.90
16198;DHT22;8206;51.440;6.914;2023-02-20T10:59:56;8.40;99.90
16198;DHT22;8206;51.440;6.914;2023-02-20T11:02:31;8.50;99.90
16198;DHT22;8206;51.440;6.914;2023-02-20T11:05:01;8.70;1.00
16198;DHT22;8206;51.440;6.914;2023-02-20T11:07:29;8.70;1.00
16198;DHT22;8206;51.440;6.914;2023-02-20T11:09:57;8.80;99.90
16198;DHT22;8206;51.440;6.914;2023-02-20T11:12:28;8.80;99.90
16198;DHT22;8206;51.440;6.914;2023-02-20T11:14:56;8.80;99.90
16198;DHT22;8206;51.440;6.914;2023-02-20T11:17:26;8.80;1.00
16198;DHT22;8206;51.440;6.914;2023-02-20T11:19:55;8.70;16.90
16198;DHT22;8206;51.440;6.914;2023-02-20T11:22:40;8.70;1.00
16198;DHT22;8206;51.440;6.914;2023-02-20T11:25:17;8.70;1.00
16198;DHT22;8206;51.440;6.914;2023-02-20T11:27:46;8.60;1.00
16198;DHT22;8206;51.440;6.914;2023-02-20T11:30:25;8.50;1.00
16198;DHT22;8206;51.440;6.914;2023-02-20T11:33:00;8.40;99.90
16198;DHT22;8206;51.440;6.914;2023-02-20T11:35:29;8.40;99.90
16198;DHT22;8206;51.440;6.914;2023-02-20T11:38:25;8.40;99.90
16198;DHT22;8206;51.440;6.914;2023-02-20T11:41:04;8.40;99.90
16198;DHT22;8206;51.440;6.914;2023-02-20T11:43:33;8.30;99.90
16198;DHT22;8206;51.440;6.914;2023-02-20T11:46:13;8.30;99.90
16198;DHT22;8206;51.440;6.914;2023-02-20T11:48:58;8.30;99.90
16198;DHT22;8206;51.440;6.914;2023-02-20T11:51:34;8.30;26.00
16198;DHT22;8206;51.440;6.914;2023-02-20T11:54:09;8.30;99.90
16198;DHT22;8206;51.440;6.914;2023-02-20T11:56:53;8.40;1.00
16198;DHT22;8206;51.440;6.914;2023-02-20T11:59:33;8.40;99.90
16198;DHT22;8206;51.440;6.914;2023-02-20T12:02:22;8.30;85.10
16198;DHT22;8206;51.440;6.914;2023-02-20T12:05:10;8.30;1.00
16198;DHT22;8206;51.440;6.914;2023-02-20T12:07:40;8.30;1.00
16198;DHT22;8206;51.440;6.914;2023-02-20T12:10:36;8.30;1.00
16198;DHT22;8206;51.440;6.914;2023-02-20T12:13:10;8.30;1.00
16198;DHT22;8206;51.440;6.914;2023-02-20T12:15:38;8.30;1.00
16198;DHT22;8206;51.440;6.914;2023-02-20T12:18:26;8.30;1.00
16198;DHT22;8206;51.440;6.914;2023-02-20T12:21:02;8.30;1.00
16198;DHT22;8206;51.440;6.914;2023-02-20T12:23:38;8.40;1.00
16198;DHT22;8206;51.440;6.914;2023-02-20T12:26:13;8.40;1.00
16198;DHT22;8206;51.440;6.914;2023-02-20T12:28:52;8.30;1.00
16198;DHT22;8206;51.440;6.914;2023-02-20T12:31:31;8.40;1.00
16198;DHT22;8206;51.440;6.914;2023-02-20T12:34:23;8.40;1.00
16198;DHT22;8206;51.440;6.914;2023-02-20T12:37:02;8.30;1.00
16198;DHT22;8206;51.440;6.914;2023-02-20T12:39:38;8.40;1.00
16198;DHT22;8206;51.440;6.914;2023-02-20T12:42:19;8.40;1.00
16198;DHT22;8206;51.440;6.914;2023-02-20T12:45:07;8.50;1.00
16198;DHT22;8206;51.440;6.914;2023-02-20T12:47:39;8.50;99.90
16198;DHT22;8206;51.440;6.914;2023-02-20T12:50:29;8.50;1.00
16198;DHT22;8206;51.440;6.914;2023-02-20T12:53:14;8.50;1.00
16198;DHT22;8206;51.440;6.914;2023-02-20T12:55:50;8.50;1.00
16198;DHT22;8206;51.440;6.914;2023-02-20T12:58:28;8.50;1.00
16198;DHT22;8206;51.440;6.914;2023-02-20T13:01:00;8.50;1.00
16198;DHT22;8206;51.440;6.914;2023-02-20T13:03:38;8.50;1.00
16198;DHT22;8206;51.440;6.914;2023-02-20T13:06:07;8.50;1.00
16198;DHT22;8206;51.440;6.914;2023-02-20T13:08:37;8.50;1.00
16198;DHT22;8206;51.440;6.914;2023-02-20T13:11:11;8.60;1.00
16198;DHT22;8206;51.440;6.914;2023-02-20T13:13:49;8.50;1.00
16198;DHT22;8206;51.440;6.914;2023-02-20T13:16:25;8.60;1.00
16198;DHT22;8206;51.440;6.914;2023-02-20T13:19:00;8.60;1.00
16198;DHT22;8206;51.440;6.914;2023-02-20T13:21:30;8.70;1.00
16198;DHT22;8206;51.440;6.914;2023-02-20T13:24:30;8.80;99.90
16198;DHT22;8206;51.440;6.914;2023-02-20T13:26:58;8.80;1.00
16198;DHT22;8206;51.440;6.914;2023-02-20T13:29:32;8.70;1.00
16198;DHT22;8206;51.440;6.914;2023-02-20T13:32:02;8.60;1.00
16198;DHT22;8206;51.440;6.914;2023-02-20T13:34:33;8.50;1.00
16198;DHT22;8206;51.440;6.914;2023-02-20T13:37:00;8.40;1.00
16198;DHT22;8206;51.440;6.914;2023-02-20T13:39:47;8.40;25.70
16198;DHT22;8206;51.440;6.914;2023-02-20T13:42:29;8.50;1.00
16198;DHT22;8206;51.440;6.914;2023-02-20T13:44:56;8.50;1.00
16198;DHT22;8206;51.440;6.914;2023-02-20T13:47:31;8.40;92.30
16198;DHT22;8206;51.440;6.914;2023-02-20T13:49:59;8.40;35.40
16198;DHT22;8206;51.440;6.914;2023-02-20T13:52:33;8.40;99.90
16198;DHT22;8206;51.440;6.914;2023-02-20T13:55:04;8.40;99.90
16198;DHT22;8206;51.440;6.914;2023-02-20T13:57:43;8.30;99.90
16198;DHT22;8206;51.440;6.914;2023-02-20T14:00:41;8.30;1.00
16198;DHT22;8206;51.440;6.914;2023-02-20T14:03:16;8.30;12.80
16198;DHT22;8206;51.440;6.914;2023-02-20T14:05:43;8.40;1.00
16198;DHT22;8206;51.440;6.914;2023-02-20T14:08:16;8.30;99.90
16198;DHT22;8206;51.440;6.914;2023-02-20T14:10:44;8.30;92.10
16198;DHT22;8206;51.440;6.914;2023-02-20T14:13:16;8.30;99.90
16198;DHT22;8206;51.440;6.914;2023-02-20T14:15:45;8.30;1.00
16198;DHT22;8206;51.440;6.914;2023-02-20T14:18:17;8.20;99.90
16198;DHT22;8206;51.440;6.914;2023-02-20T14:20:44;8.30;1.00
16198;DHT22;8206;51.440;6.914;2023-02-20T14:23:21;8.30;1.00
16198;DHT22;8206;51.440;6.914;2023-02-20T14:25:54;8.30;1.00
16198;DHT22;8206;51.440;6.914;2023-02-20T14:28:21;8.40;1.00
16198;DHT22;8206;51.440;6.914;2023-02-20T14:31:06;8.30;1.00
16198;DHT22;8206;51.440;6.914;2023-02-20T14:33:45;8.40;1.00
16198;DHT22;8206;51.440;6.914;2023-02-20T14:36:20;8.30;1.00
16198;DHT22;8206;51.440;6.914;2023-02-20T14:39:02;8.30;1.00
16198;DHT22;8206;51.440;6.914;2023-02-20T14:41:33;8.30;1.00
16198;DHT22;8206;51.440;6.914;2023-02-20T14:44:01;8.30;1.00
16198;DHT22;8206;51.440;6.914;2023-02-20T14:46:30;8.20;1.00
16198;DHT22;8206;51.440;6.914;2023-02-20T14:49:06;8.20;1.00
16198;DHT22;8206;51.440;6.914;2023-02-20T14:51:34;8.20;1.00
16198;DHT22;8206;51.440;6.914;2023-02-20T14:54:09;8.20;1.00
16198;DHT22;8206;51.440;6.914;2023-02-20T14:56:41;8.20;58.20
16198;DHT22;8206;51.440;6.914;2023-02-20T14:59:22;8.30;94.40
16198;DHT22;8206;51.440;6.914;2023-02-20T15:01:50;8.30;1.00
16198;DHT22;8206;51.440;6.914;2023-02-20T15:04:19;8.30;1.00
16198;DHT22;8206;51.440;6.914;2023-02-20T15:06:49;8.30;99.90
16198;DHT22;8206;51.440;6.914;2023-02-20T15:09:17;8.20;99.90
16198;DHT22;8206;51.440;6.914;2023-02-20T15:11:47;8.20;1.00
16198;DHT22;8206;51.440;6.914;2023-02-20T15:14:22;8.30;1.00
16198;DHT22;8206;51.440;6.914;2023-02-20T15:17:08;8.30;1.00
16198;DHT22;8206;51.440;6.914;2023-02-20T15:19:38;8.30;1.00
16198;DHT22;8206;51.440;6.914;2023-02-20T15:22:05;8.30;1.00
16198;DHT22;8206;51.440;6.914;2023-02-20T15:24:46;8.30;1.00
16198;DHT22;8206;51.440;6.914;2023-02-20T15:27:15;8.30;1.00
16198;DHT22;8206;51.440;6.914;2023-02-20T15:29:44;8.30;1.00
16198;DHT22;8206;51.440;6.914;2023-02-20T15:32:17;8.30;99.90
16198;DHT22;8206;51.440;6.914;2023-02-20T15:34:49;8.30;1.00
16198;DHT22;8206;51.440;6.914;2023-02-20T15:37:21;8.30;1.00
16198;DHT22;8206;51.440;6.914;2023-02-20T15:39:49;8.30;1.00
16198;DHT22;8206;51.440;6.914;2023-02-20T15:42:17;8.40;1.00
16198;DHT22;8206;51.440;6.914;2023-02-20T15:44:44;8.40;1.00
16198;DHT22;8206;51.440;6.914;2023-02-20T15:47:11;8.40;1.00
16198;DHT22;8206;51.440;6.914;2023-02-20T15:49:38;8.40;99.90
16198;DHT22;8206;51.440;6.914;2023-02-20T15:52:12;8.40;1.00
16198;DHT22;8206;51.440;6.914;2023-02-20T15:54:40;8.40;1.00
16198;DHT22;8206;51.440;6.914;2023-02-20T15:57:13;8.40;52.30
16198;DHT22;8206;51.440;6.914;2023-02-20T15:59:40;8.40;99.90
16198;DHT22;8206;51.440;6.914;2023-02-20T16:02:12;8.40;1.00
16198;DHT22;8206;51.440;6.914;2023-02-20T16:04:39;8.30;99.90
16198;DHT22;8206;51.440;6.914;2023-02-20T16:07:07;8.30;1.00
16198;DHT22;8206;51.440;6.914;2023-02-20T16:09:34;8.30;1.00
16198;DHT22;8206;51.440;6.914;2023-02-20T16:12:01;8.40;99.90
16198;DHT22;8206;51.440;6.914;2023-02-20T16:14:27;8.40;99.90
16198;DHT22;8206;51.440;6.914;2023-02-20T16:16:54;8.30;99.90
16198;DHT22;8206;51.440;6.914;2023-02-20T16:19:22;8.40;99.90
16198;DHT22;8206;51.440;6.914;2023-02-20T16:21:50;8.40;1.00
16198;DHT22;8206;51.440;6.914;2023-02-20T16:24:18;8.30;1.00
16198;DHT22;8206;51.440;6.914;2023-02-20T16:26:47;8.40;1.00
16198;DHT22;8206;51.440;6.914;2023-02-20T16:29:15;8.40;1.00
16198;DHT22;8206;51.440;6.914;2023-02-20T16:32:10;8.40;1.00
16198;DHT22;8206;51.440;6.914;2023-02-20T16:34:37;8.30;8.20
16198;DHT22;8206;51.440;6.914;2023-02-20T16:37:07;8.40;1.00
16198;DHT22;8206;51.440;6.914;2023-02-20T16:39:36;8.30;1.00
16198;DHT22;8206;51.440;6.914;2023-02-20T16:44:55;8.30;1.00
16198;DHT22;8206;51.440;6.914;2023-02-20T16:47:25;8.40;99.90